createdAt,value
2022-08-27T00:00:03.669Z,20.17
2022-08-27T00:01:03.939Z,20.15
2022-08-27T00:02:04.222Z,20.17
2022-08-27T00:03:04.420Z,20.15
2022-08-27T00:04:04.703Z,20.19
2022-08-27T00:05:04.974Z,20.21
2022-08-27T00:06:05.249Z,20.18
2022-08-27T00:07:05.440Z,20.18
2022-08-27T00:08:05.724Z,20.18
2022-08-27T00:09:05.991Z,20.15
2022-08-27T00:10:06.276Z,20.14
2022-08-27T00:11:06.548Z,20.15
2022-08-27T00:12:06.798Z,20.15
2022-08-27T00:13:07.067Z,20.15
2022-08-27T00:14:07.377Z,20.12
2022-08-27T00:15:07.530Z,20.14
2022-08-27T00:16:07.827Z,20.15
2022-08-27T00:17:08.089Z,20.18
2022-08-27T00:18:08.357Z,20.19
2022-08-27T00:19:08.614Z,20.21
2022-08-27T00:20:08.882Z,20.24
2022-08-27T00:21:09.165Z,20.22
2022-08-27T00:22:09.532Z,20.21
2022-08-27T00:23:09.730Z,20.21
2022-08-27T00:24:09.995Z,20.21
2022-08-27T00:25:10.271Z,20.24
2022-08-27T00:26:10.530Z,20.21
2022-08-27T00:27:10.778Z,20.21
2022-08-27T00:28:11.206Z,20.22
2022-08-27T00:29:11.215Z,20.21
2022-08-27T00:30:11.509Z,20.22
2022-08-27T00:31:12.306Z,20.24
2022-08-27T00:32:12.092Z,20.24
2022-08-27T00:33:12.244Z,20.22
2022-08-27T00:34:12.890Z,20.21
2022-08-27T00:35:12.724Z,20.19
2022-08-27T00:36:12.978Z,20.19
2022-08-27T00:37:13.233Z,20.17
2022-08-27T00:38:13.512Z,20.18
2022-08-27T00:39:13.759Z,20.19
2022-08-27T00:40:14.092Z,20.18
2022-08-27T00:41:17.118Z,20.21
2022-08-27T00:42:14.576Z,20.18
2022-08-27T00:43:14.934Z,20.19
2022-08-27T00:44:15.051Z,20.19
2022-08-27T00:45:15.334Z,20.22
2022-08-27T00:46:15.701Z,20.24
2022-08-27T00:47:15.775Z,20.27
2022-08-27T00:48:16.028Z,20.24
2022-08-27T00:49:16.213Z,20.24
2022-08-27T00:50:16.488Z,20.22
2022-08-27T00:51:16.738Z,20.26
2022-08-27T00:52:16.993Z,20.24
2022-08-27T00:53:17.275Z,20.22
2022-08-27T00:54:18.723Z,20.22
2022-08-27T00:55:17.740Z,20.21
2022-08-27T00:56:17.988Z,20.22
2022-08-27T00:57:18.243Z,20.21
2022-08-27T00:58:18.487Z,20.21
2022-08-27T00:59:18.732Z,20.22
2022-08-27T01:00:19.015Z,20.26
2022-08-27T01:01:19.348Z,20.29
2022-08-27T01:02:19.611Z,20.26
2022-08-27T01:03:20.638Z,20.22
2022-08-27T01:04:20.052Z,20.26
2022-08-27T01:05:20.229Z,20.26
2022-08-27T01:06:20.470Z,20.27
2022-08-27T01:07:20.729Z,20.26
2022-08-27T01:08:20.989Z,20.29
2022-08-27T01:09:21.235Z,20.29
2022-08-27T01:10:21.505Z,20.29
2022-08-27T01:11:21.757Z,20.27
2022-08-27T01:12:22.010Z,20.26
2022-08-27T01:13:22.281Z,20.26
2022-08-27T01:14:23.514Z,20.27
2022-08-27T01:15:22.780Z,20.29
2022-08-27T01:16:23.085Z,20.27
2022-08-27T01:17:23.250Z,20.30
2022-08-27T01:18:23.516Z,20.30
2022-08-27T01:19:23.758Z,20.32
2022-08-27T01:20:24.036Z,20.33
2022-08-27T01:21:24.293Z,20.33
2022-08-27T01:22:24.546Z,20.34
2022-08-27T01:23:24.795Z,20.37
2022-08-27T01:24:25.061Z,20.40
2022-08-27T01:25:25.342Z,20.42
2022-08-27T01:26:25.605Z,20.44
2022-08-27T01:27:25.861Z,20.44
2022-08-27T01:28:26.826Z,20.40
2022-08-27T01:29:27.312Z,20.37
2022-08-27T01:30:26.594Z,20.40
2022-08-27T01:31:26.910Z,20.42
2022-08-27T01:32:27.035Z,20.42
2022-08-27T01:33:27.284Z,20.42
2022-08-27T01:34:27.539Z,20.42
2022-08-27T01:35:27.806Z,20.42
2022-08-27T01:36:28.048Z,20.39
2022-08-27T01:37:28.325Z,20.37
2022-08-27T01:38:30.642Z,20.36
2022-08-27T01:39:28.797Z,20.40
2022-08-27T01:40:29.054Z,20.44
2022-08-27T01:41:29.297Z,20.42
2022-08-27T01:42:29.554Z,20.46
2022-08-27T01:43:29.812Z,20.46
2022-08-27T01:44:30.064Z,20.44
2022-08-27T01:45:30.343Z,20.46
2022-08-27T01:46:30.644Z,20.48
2022-08-27T01:47:31.372Z,20.48
2022-08-27T01:48:31.037Z,20.48
2022-08-27T01:49:31.298Z,20.48
2022-08-27T01:50:31.594Z,20.46
2022-08-27T01:51:31.827Z,20.44
2022-08-27T01:52:32.075Z,20.44
2022-08-27T01:53:32.340Z,20.49
2022-08-27T01:54:32.615Z,20.48
2022-08-27T01:55:32.872Z,20.52
2022-08-27T01:56:33.131Z,20.52
2022-08-27T01:57:33.387Z,20.55
2022-08-27T01:58:33.637Z,20.50
2022-08-27T01:59:39.754Z,20.46
2022-08-27T02:00:35.651Z,20.44
2022-08-27T02:01:34.318Z,20.44
2022-08-27T02:02:34.577Z,20.49
2022-08-27T02:03:34.850Z,20.48
2022-08-27T02:04:35.116Z,20.46
2022-08-27T02:05:42.258Z,20.48
2022-08-27T02:06:36.601Z,20.46
2022-08-27T02:07:35.856Z,20.48
2022-08-27T02:08:36.114Z,20.49
2022-08-27T02:09:36.363Z,20.48
2022-08-27T02:10:36.627Z,20.49
2022-08-27T02:11:44.748Z,20.49
2022-08-27T02:12:38.113Z,20.53
2022-08-27T02:13:37.355Z,20.52
2022-08-27T02:14:37.620Z,20.55
2022-08-27T02:15:37.856Z,20.53
2022-08-27T02:16:38.222Z,20.52
2022-08-27T02:17:39.385Z,20.53
2022-08-27T02:18:38.640Z,20.55
2022-08-27T02:19:38.865Z,20.56
2022-08-27T02:20:39.120Z,20.56
2022-08-27T02:21:39.394Z,20.56
2022-08-27T02:22:39.672Z,20.58
2022-08-27T02:23:39.925Z,20.59
2022-08-27T02:24:40.181Z,20.60
2022-08-27T02:25:40.434Z,20.59
2022-08-27T02:26:40.722Z,20.58
2022-08-27T02:27:40.956Z,20.58
2022-08-27T02:28:41.231Z,20.59
2022-08-27T02:29:41.482Z,20.59
2022-08-27T02:30:41.747Z,20.64
2022-08-27T02:31:42.141Z,20.64
2022-08-27T02:32:42.206Z,20.64
2022-08-27T02:33:42.474Z,20.63
2022-08-27T02:34:42.761Z,20.64
2022-08-27T02:35:43.010Z,20.63
2022-08-27T02:36:43.273Z,20.60
2022-08-27T02:37:43.525Z,20.58
2022-08-27T02:38:43.775Z,20.53
2022-08-27T02:39:46.066Z,20.56
2022-08-27T02:40:44.333Z,20.58
2022-08-27T02:41:44.587Z,20.60
2022-08-27T02:42:44.850Z,20.63
2022-08-27T02:43:45.110Z,20.60
2022-08-27T02:44:45.299Z,20.64
2022-08-27T02:45:45.541Z,20.63
2022-08-27T02:46:45.938Z,20.64
2022-08-27T02:47:46.021Z,20.66
2022-08-27T02:48:46.282Z,20.67
2022-08-27T02:49:46.531Z,20.64
2022-08-27T02:50:46.801Z,20.60
2022-08-27T02:51:47.064Z,20.56
2022-08-27T02:52:47.252Z,20.60
2022-08-27T02:53:47.498Z,20.55
2022-08-27T02:54:47.749Z,20.55
2022-08-27T02:55:47.997Z,20.55
2022-08-27T02:56:48.290Z,20.58
2022-08-27T02:57:48.421Z,20.56
2022-08-27T02:58:48.651Z,20.53
2022-08-27T02:59:48.835Z,20.50
2022-08-27T03:00:49.082Z,20.48
2022-08-27T03:01:49.399Z,20.49
2022-08-27T03:02:49.637Z,20.50
2022-08-27T03:03:49.808Z,20.53
2022-08-27T03:04:50.423Z,20.55
2022-08-27T03:05:50.353Z,20.56
2022-08-27T03:06:50.618Z,20.56
2022-08-27T03:07:50.887Z,20.58
2022-08-27T03:08:52.399Z,20.58
2022-08-27T03:09:51.380Z,20.58
2022-08-27T03:10:51.665Z,20.58
2022-08-27T03:11:51.835Z,20.55
2022-08-27T03:12:52.090Z,20.58
2022-08-27T03:13:52.336Z,20.58
2022-08-27T03:14:52.602Z,20.59
2022-08-27T03:15:52.876Z,20.59
2022-08-27T03:16:53.146Z,20.59
2022-08-27T03:17:53.401Z,20.59
2022-08-27T03:18:53.650Z,20.56
2022-08-27T03:19:53.900Z,20.52
2022-08-27T03:20:54.157Z,20.52
2022-08-27T03:21:55.034Z,20.52
2022-08-27T03:22:54.654Z,20.53
2022-08-27T03:23:54.895Z,20.55
2022-08-27T03:24:55.178Z,20.52
2022-08-27T03:25:55.434Z,20.53
2022-08-27T03:26:55.733Z,20.53
2022-08-27T03:27:55.979Z,20.48
2022-08-27T03:28:56.235Z,20.46
2022-08-27T03:29:59.596Z,20.44
2022-08-27T03:30:57.765Z,20.49
2022-08-27T03:31:56.925Z,20.46
2022-08-27T03:32:57.187Z,20.49
2022-08-27T03:33:57.460Z,20.50
2022-08-27T03:34:57.777Z,20.50
2022-08-27T03:35:57.914Z,20.50
2022-08-27T03:36:58.208Z,20.44
2022-08-27T03:37:58.350Z,20.40
2022-08-27T03:38:58.623Z,20.42
2022-08-27T03:39:58.897Z,20.34
2022-08-27T03:40:59.128Z,20.30
2022-08-27T03:41:59.410Z,20.24
2022-08-27T03:42:59.683Z,20.21
2022-08-27T03:43:59.950Z,20.21
2022-08-27T03:45:00.207Z,20.18
2022-08-27T03:46:02.369Z,20.18
2022-08-27T03:47:00.699Z,20.21
2022-08-27T03:48:00.853Z,20.19
2022-08-27T03:49:01.133Z,20.18
2022-08-27T03:50:01.415Z,20.15
2022-08-27T03:51:01.659Z,20.15
2022-08-27T03:52:01.934Z,20.12
2022-08-27T03:53:02.194Z,20.12
2022-08-27T03:54:02.450Z,20.17
2022-08-27T03:55:02.712Z,20.19
2022-08-27T03:56:02.978Z,20.22
2022-08-27T03:57:03.243Z,20.22
2022-08-27T03:58:03.595Z,20.19
2022-08-27T03:59:03.719Z,20.11
2022-08-27T04:00:03.976Z,20.12
2022-08-27T04:01:04.229Z,20.15
2022-08-27T04:02:05.048Z,20.15
2022-08-27T04:03:04.753Z,20.19
2022-08-27T04:04:04.903Z,20.18
2022-08-27T04:05:05.158Z,20.22
2022-08-27T04:06:05.413Z,20.21
2022-08-27T04:07:05.712Z,20.17
2022-08-27T04:08:05.961Z,20.19
2022-08-27T04:09:06.248Z,20.21
2022-08-27T04:10:06.506Z,20.17
2022-08-27T04:11:06.760Z,20.12
2022-08-27T04:12:07.025Z,20.18
2022-08-27T04:13:07.281Z,20.21
2022-08-27T04:14:26.197Z,20.22
2022-08-27T04:15:08.757Z,20.22
2022-08-27T04:16:08.023Z,20.24
2022-08-27T04:17:08.287Z,20.19
2022-08-27T04:18:08.622Z,20.24
2022-08-27T04:19:08.832Z,20.27
2022-08-27T04:20:33.893Z,20.19
2022-08-27T04:21:10.284Z,20.15
2022-08-27T04:22:09.572Z,20.11
2022-08-27T04:23:09.821Z,20.11
2022-08-27T04:24:10.087Z,20.12
2022-08-27T04:25:10.463Z,20.15
2022-08-27T04:26:10.615Z,20.14
2022-08-27T04:27:10.768Z,20.14
2022-08-27T04:28:11.234Z,20.17
2022-08-27T04:29:18.315Z,20.18
2022-08-27T04:30:11.533Z,20.21
2022-08-27T04:31:13.104Z,20.22
2022-08-27T04:32:12.035Z,20.22
2022-08-27T04:33:12.276Z,20.21
2022-08-27T04:34:12.540Z,20.22
2022-08-27T04:35:12.809Z,20.24
2022-08-27T04:36:13.046Z,20.26
2022-08-27T04:37:13.326Z,20.24
2022-08-27T04:38:13.571Z,20.24
2022-08-27T04:39:13.840Z,20.19
2022-08-27T04:40:14.110Z,20.18
2022-08-27T04:41:14.355Z,20.22
2022-08-27T04:42:14.637Z,20.19
2022-08-27T04:43:14.874Z,20.18
2022-08-27T04:44:15.071Z,20.14
2022-08-27T04:45:15.325Z,20.19
2022-08-27T04:46:15.618Z,20.21
2022-08-27T04:47:15.787Z,20.27
2022-08-27T04:48:16.112Z,20.27
2022-08-27T04:49:16.266Z,20.27
2022-08-27T04:50:16.519Z,20.19
2022-08-27T04:51:17.406Z,20.22
2022-08-27T04:52:17.032Z,20.27
2022-08-27T04:53:17.322Z,20.30
2022-08-27T04:54:17.564Z,20.33
2022-08-27T04:55:17.843Z,20.32
2022-08-27T04:56:18.099Z,20.24
2022-08-27T04:57:18.364Z,20.24
2022-08-27T04:58:18.622Z,20.27
2022-08-27T04:59:18.886Z,20.27
2022-08-27T05:00:19.156Z,20.27
2022-08-27T05:01:19.441Z,20.30
2022-08-27T05:02:19.615Z,20.26
2022-08-27T05:03:20.146Z,20.27
2022-08-27T05:04:20.123Z,20.22
2022-08-27T05:05:20.446Z,20.24
2022-08-27T05:06:20.601Z,20.21
2022-08-27T05:07:20.897Z,20.24
2022-08-27T05:08:21.053Z,20.27
2022-08-27T05:09:21.312Z,20.36
2022-08-27T05:10:21.581Z,20.39
2022-08-27T05:11:21.833Z,20.39
2022-08-27T05:12:22.122Z,20.39
2022-08-27T05:13:22.396Z,20.33
2022-08-27T05:14:22.648Z,20.36
2022-08-27T05:15:22.936Z,20.37
2022-08-27T05:16:23.284Z,20.34
2022-08-27T05:17:23.428Z,20.36
2022-08-27T05:18:23.682Z,20.33
2022-08-27T05:19:23.948Z,20.33
2022-08-27T05:20:24.199Z,20.34
2022-08-27T05:21:24.453Z,20.36
2022-08-27T05:22:24.766Z,20.33
2022-08-27T05:23:24.908Z,20.30
2022-08-27T05:24:25.153Z,20.34
2022-08-27T05:25:25.401Z,20.34
2022-08-27T05:26:25.649Z,20.42
2022-08-27T05:27:25.908Z,20.44
2022-08-27T05:28:27.801Z,20.39
2022-08-27T05:29:26.381Z,20.44
2022-08-27T05:30:26.633Z,20.44
2022-08-27T05:31:26.933Z,20.44
2022-08-27T05:32:27.195Z,20.44
2022-08-27T05:33:27.452Z,20.48
2022-08-27T05:34:27.709Z,20.49
2022-08-27T05:35:27.940Z,20.49
2022-08-27T05:36:28.190Z,20.50
2022-08-27T05:37:28.483Z,20.53
2022-08-27T05:38:28.731Z,20.53
2022-08-27T05:39:29.013Z,20.55
2022-08-27T05:40:29.338Z,20.52
2022-08-27T05:41:31.713Z,20.52
2022-08-27T05:42:29.786Z,20.52
2022-08-27T05:43:30.050Z,20.53
2022-08-27T05:44:41.041Z,20.55
2022-08-27T05:45:31.512Z,20.53
2022-08-27T05:46:30.795Z,20.60
2022-08-27T05:47:31.080Z,20.60
2022-08-27T05:48:31.339Z,20.59
2022-08-27T05:49:31.582Z,20.60
2022-08-27T05:50:31.841Z,20.59
2022-08-27T05:51:32.092Z,20.63
2022-08-27T05:52:32.357Z,20.64
2022-08-27T05:53:32.609Z,20.63
2022-08-27T05:54:32.861Z,20.59
2022-08-27T05:55:33.122Z,20.60
2022-08-27T05:56:33.384Z,20.66
2022-08-27T05:57:33.732Z,20.67
2022-08-27T05:58:33.875Z,20.70
2022-08-27T05:59:34.936Z,20.71
2022-08-27T06:00:34.358Z,20.71
2022-08-27T06:01:34.609Z,20.67
2022-08-27T06:02:34.932Z,20.67
2022-08-27T06:03:35.044Z,20.67
2022-08-27T06:04:35.319Z,20.64
2022-08-27T06:05:35.621Z,20.67
2022-08-27T06:06:35.789Z,20.71
2022-08-27T06:07:36.090Z,20.73
2022-08-27T06:08:36.347Z,20.74
2022-08-27T06:09:36.635Z,20.80
2022-08-27T06:10:36.763Z,20.80
2022-08-27T06:11:37.007Z,20.78
2022-08-27T06:12:37.274Z,20.85
2022-08-27T06:13:37.606Z,20.92
2022-08-27T06:14:37.778Z,20.88
2022-08-27T06:15:38.122Z,20.85
2022-08-27T06:16:38.271Z,20.83
2022-08-27T06:17:38.495Z,20.85
2022-08-27T06:18:38.640Z,20.90
2022-08-27T06:19:38.959Z,20.89
2022-08-27T06:20:39.103Z,20.88
2022-08-27T06:21:39.369Z,20.89
2022-08-27T06:22:39.531Z,20.88
2022-08-27T06:23:39.930Z,20.90
2022-08-27T06:24:39.973Z,20.93
2022-08-27T06:25:40.218Z,20.90
2022-08-27T06:26:40.467Z,20.88
2022-08-27T06:27:40.710Z,20.89
2022-08-27T06:28:40.951Z,20.88
2022-08-27T06:29:41.201Z,20.88
2022-08-27T06:30:41.518Z,20.88
2022-08-27T06:31:41.674Z,20.90
2022-08-27T06:32:41.914Z,20.92
2022-08-27T06:33:42.178Z,20.95
2022-08-27T06:34:42.424Z,20.96
2022-08-27T06:35:42.663Z,20.95
2022-08-27T06:36:42.897Z,20.92
2022-08-27T06:37:43.158Z,20.93
2022-08-27T06:38:43.418Z,20.98
2022-08-27T06:39:43.663Z,20.96
2022-08-27T06:40:43.789Z,20.95
2022-08-27T06:41:44.042Z,20.93
2022-08-27T06:42:44.315Z,20.92
2022-08-27T06:43:44.541Z,20.95
2022-08-27T06:44:44.797Z,21.01
2022-08-27T06:45:45.042Z,21.04
2022-08-27T06:46:45.378Z,21.08
2022-08-27T06:47:45.586Z,21.11
2022-08-27T06:48:45.836Z,21.11
2022-08-27T06:49:46.485Z,21.11
2022-08-27T06:50:46.241Z,21.14
2022-08-27T06:51:46.487Z,21.13
2022-08-27T06:52:46.757Z,21.14
2022-08-27T06:53:46.998Z,21.19
2022-08-27T06:54:47.363Z,21.20
2022-08-27T06:55:47.593Z,21.15
2022-08-27T06:56:47.747Z,21.17
2022-08-27T06:57:47.980Z,21.14
2022-08-27T06:58:48.227Z,21.13
2022-08-27T06:59:48.466Z,21.15
2022-08-27T07:00:49.158Z,21.20
2022-08-27T07:01:49.099Z,21.20
2022-08-27T07:02:49.308Z,21.20
2022-08-27T07:03:49.444Z,21.19
2022-08-27T07:04:49.722Z,21.17
2022-08-27T07:05:49.975Z,21.17
2022-08-27T07:06:50.224Z,21.17
2022-08-27T07:07:50.496Z,21.20
2022-08-27T07:08:53.081Z,21.25
2022-08-27T07:09:50.946Z,21.33
2022-08-27T07:10:51.190Z,21.32
2022-08-27T07:11:51.435Z,21.33
2022-08-27T07:12:51.733Z,21.35
2022-08-27T07:13:51.859Z,21.38
2022-08-27T07:14:53.101Z,21.35
2022-08-27T07:15:52.447Z,21.40
2022-08-27T07:16:52.614Z,21.44
2022-08-27T07:17:52.842Z,21.40
2022-08-27T07:18:53.122Z,21.44
2022-08-27T07:19:53.282Z,21.45
2022-08-27T07:20:53.545Z,21.48
2022-08-27T07:21:53.800Z,21.45
2022-08-27T07:22:54.078Z,21.43
2022-08-27T07:23:54.395Z,21.44
2022-08-27T07:24:54.549Z,21.47
2022-08-27T07:25:54.777Z,21.51
2022-08-27T07:26:55.023Z,21.48
2022-08-27T07:27:55.286Z,21.47
2022-08-27T07:28:55.572Z,21.48
2022-08-27T07:29:56.584Z,21.50
2022-08-27T07:30:55.984Z,21.47
2022-08-27T07:31:56.277Z,21.47
2022-08-27T07:32:56.315Z,21.40
2022-08-27T07:33:56.556Z,21.40
2022-08-27T07:34:56.799Z,21.40
2022-08-27T07:35:57.039Z,21.41
2022-08-27T07:36:57.281Z,21.38
2022-08-27T07:37:57.576Z,21.44
2022-08-27T07:39:01.660Z,21.45
2022-08-27T07:39:58.028Z,21.41
2022-08-27T07:40:58.259Z,21.45
2022-08-27T07:41:58.500Z,21.44
2022-08-27T07:42:58.770Z,21.45
2022-08-27T07:43:59.026Z,21.45
2022-08-27T07:44:59.290Z,21.47
2022-08-27T07:45:59.574Z,21.48
2022-08-27T07:46:59.727Z,21.43
2022-08-27T07:47:59.984Z,21.41
2022-08-27T07:49:00.226Z,21.45
2022-08-27T07:50:00.465Z,21.51
2022-08-27T07:51:00.775Z,21.53
2022-08-27T07:52:00.905Z,21.53
2022-08-27T07:53:01.168Z,21.53
2022-08-27T07:54:01.408Z,21.56
2022-08-27T07:55:01.675Z,21.56
2022-08-27T07:56:01.938Z,21.56
2022-08-27T07:57:02.145Z,21.59
2022-08-27T07:58:02.405Z,21.59
2022-08-27T07:59:02.648Z,21.58
2022-08-27T08:00:02.894Z,21.60
2022-08-27T08:01:03.164Z,21.62
2022-08-27T08:02:03.436Z,21.59
2022-08-27T08:03:03.892Z,21.53
2022-08-27T08:04:03.915Z,21.54
2022-08-27T08:05:04.205Z,21.59
2022-08-27T08:06:04.334Z,21.58
2022-08-27T08:07:04.583Z,21.60
2022-08-27T08:08:04.839Z,21.63
2022-08-27T08:09:05.106Z,21.63
2022-08-27T08:10:05.340Z,21.62
2022-08-27T08:11:05.579Z,21.66
2022-08-27T08:12:05.827Z,21.69
2022-08-27T08:13:06.088Z,21.69
2022-08-27T08:14:06.350Z,21.74
2022-08-27T08:15:06.587Z,21.77
2022-08-27T08:16:06.841Z,21.83
2022-08-27T08:17:10.336Z,21.83
2022-08-27T08:18:07.308Z,21.85
2022-08-27T08:19:07.531Z,21.91
2022-08-27T08:20:41.249Z,21.94
2022-08-27T08:21:08.966Z,22.00
2022-08-27T08:22:08.195Z,22.06
2022-08-27T08:23:09.785Z,22.15
2022-08-27T08:24:08.706Z,22.21
2022-08-27T08:25:10.611Z,22.25
2022-08-27T08:26:09.164Z,22.28
2022-08-27T08:27:09.408Z,22.28
2022-08-27T08:28:09.727Z,22.31
2022-08-27T08:29:13.814Z,22.26
2022-08-27T08:30:11.117Z,22.30
2022-08-27T08:31:10.441Z,22.33
2022-08-27T08:32:10.549Z,22.38
2022-08-27T08:33:10.823Z,22.40
2022-08-27T08:34:10.949Z,22.41
2022-08-27T08:35:11.240Z,22.47
2022-08-27T08:36:11.497Z,22.51
2022-08-27T08:37:11.747Z,22.52
2022-08-27T08:38:12.150Z,22.55
2022-08-27T08:39:12.206Z,22.52
2022-08-27T08:40:12.482Z,22.51
2022-08-27T08:41:12.611Z,22.46
2022-08-27T08:42:12.866Z,22.49
2022-08-27T08:43:13.114Z,22.51
2022-08-27T08:44:13.356Z,22.43
2022-08-27T08:45:13.585Z,22.34
2022-08-27T08:46:13.865Z,22.31
2022-08-27T08:47:14.087Z,22.25
2022-08-27T08:48:14.480Z,22.18
2022-08-27T08:49:14.520Z,22.14
2022-08-27T08:50:17.972Z,22.15
2022-08-27T08:51:15.856Z,22.21
2022-08-27T08:52:30.971Z,22.21
2022-08-27T08:53:16.301Z,22.21
2022-08-27T08:54:15.544Z,22.19
2022-08-27T08:55:15.799Z,22.15
2022-08-27T08:56:16.016Z,22.19
2022-08-27T08:57:18.700Z,22.18
2022-08-27T08:58:16.488Z,22.14
2022-08-27T08:59:16.719Z,22.19
2022-08-27T09:00:17.048Z,22.18
2022-08-27T09:01:17.266Z,22.22
2022-08-27T09:02:17.413Z,22.23
2022-08-27T09:03:17.665Z,22.25
2022-08-27T09:04:17.903Z,22.25
2022-08-27T09:05:18.161Z,22.25
2022-08-27T09:06:18.394Z,22.23
2022-08-27T09:07:18.654Z,22.22
2022-08-27T09:08:34.230Z,22.26
2022-08-27T09:09:20.131Z,22.26
2022-08-27T09:10:19.354Z,22.26
2022-08-27T09:11:19.591Z,22.28
2022-08-27T09:12:19.848Z,22.33
2022-08-27T09:13:20.173Z,22.34
2022-08-27T09:14:20.354Z,22.34
2022-08-27T09:15:20.507Z,22.36
2022-08-27T09:16:20.753Z,22.36
2022-08-27T09:17:20.985Z,22.37
2022-08-27T09:18:21.241Z,22.38
2022-08-27T09:19:24.010Z,22.40
2022-08-27T09:20:21.603Z,22.43
2022-08-27T09:21:27.501Z,22.49
2022-08-27T09:22:23.002Z,22.49
2022-08-27T09:23:22.252Z,22.46
2022-08-27T09:24:22.501Z,22.40
2022-08-27T09:25:22.752Z,22.44
2022-08-27T09:26:23.048Z,22.41
2022-08-27T09:27:23.175Z,22.38
2022-08-27T09:28:23.428Z,22.30
2022-08-27T09:29:23.654Z,22.28
2022-08-27T09:30:27.448Z,22.25
2022-08-27T09:31:25.129Z,22.33
2022-08-27T09:32:24.269Z,22.34
2022-08-27T09:33:24.523Z,22.36
2022-08-27T09:34:24.778Z,22.36
2022-08-27T09:35:25.030Z,22.40
2022-08-27T09:36:25.307Z,22.46
2022-08-27T09:37:34.312Z,22.58
2022-08-27T09:38:26.765Z,22.73
2022-08-27T09:39:26.012Z,22.74
2022-08-27T09:40:26.263Z,22.81
2022-08-27T09:41:26.492Z,23.07
2022-08-27T09:42:26.715Z,23.21
2022-08-27T09:43:26.963Z,23.28
2022-08-27T09:44:27.196Z,23.40
2022-08-27T09:45:27.586Z,23.55
2022-08-27T09:46:27.693Z,23.55
2022-08-27T09:47:27.942Z,23.62
2022-08-27T09:48:28.173Z,23.63
2022-08-27T09:49:28.411Z,23.48
2022-08-27T09:50:28.646Z,23.48
2022-08-27T09:51:28.874Z,23.56
2022-08-27T09:52:29.098Z,23.42
2022-08-27T09:53:29.343Z,23.33
2022-08-27T09:54:29.600Z,23.42
2022-08-27T09:55:29.731Z,23.42
2022-08-27T09:56:29.976Z,23.42
2022-08-27T09:57:30.746Z,23.49
2022-08-27T09:58:30.412Z,23.49
2022-08-27T09:59:30.636Z,23.56
2022-08-27T10:00:30.860Z,23.49
2022-08-27T10:01:31.140Z,23.59
2022-08-27T10:02:31.250Z,23.74
2022-08-27T10:03:33.613Z,23.91
2022-08-27T10:04:31.711Z,24.06
2022-08-27T10:05:31.899Z,24.37
2022-08-27T10:06:32.115Z,24.74
2022-08-27T10:07:32.334Z,25.03
2022-08-27T10:08:32.575Z,25.09
2022-08-27T10:09:32.819Z,25.22
2022-08-27T10:10:33.045Z,25.33
2022-08-27T10:11:33.262Z,25.49
2022-08-27T10:12:33.475Z,25.62
2022-08-27T10:13:33.700Z,25.63
2022-08-27T10:14:33.919Z,25.68
2022-08-27T10:15:41.937Z,25.61
2022-08-27T10:16:35.356Z,25.52
2022-08-27T10:17:34.442Z,25.49
2022-08-27T10:18:34.679Z,25.49
2022-08-27T10:19:34.886Z,25.43
2022-08-27T10:20:35.095Z,25.25
2022-08-27T10:21:35.301Z,25.16
2022-08-27T10:22:35.519Z,25.09
2022-08-27T10:23:35.753Z,25.03
2022-08-27T10:24:35.972Z,25.03
2022-08-27T10:25:36.182Z,25.01
2022-08-27T10:26:36.391Z,24.93
2022-08-27T10:27:36.603Z,24.99
2022-08-27T10:28:36.852Z,24.99
2022-08-27T10:29:44.081Z,24.86
2022-08-27T10:30:37.274Z,24.85
2022-08-27T10:31:37.573Z,24.88
2022-08-27T10:32:37.641Z,24.97
2022-08-27T10:33:37.880Z,25.03
2022-08-27T10:34:38.106Z,25.06
2022-08-27T10:35:48.042Z,25.09
2022-08-27T10:36:39.439Z,25.16
2022-08-27T10:37:40.532Z,25.18
2022-08-27T10:38:43.793Z,25.25
2022-08-27T10:39:40.080Z,25.30
2022-08-27T10:40:39.387Z,25.31
2022-08-27T10:41:39.515Z,25.24
2022-08-27T10:42:39.710Z,25.25
2022-08-27T10:43:39.921Z,25.24
2022-08-27T10:44:40.149Z,25.16
2022-08-27T10:45:40.374Z,25.15
2022-08-27T10:46:40.566Z,25.24
2022-08-27T10:47:41.726Z,25.36
2022-08-27T10:48:40.957Z,25.56
2022-08-27T10:49:41.200Z,25.80
2022-08-27T10:50:41.335Z,25.89
2022-08-27T10:51:41.545Z,25.93
2022-08-27T10:52:41.681Z,25.89
2022-08-27T10:53:41.981Z,26.01
2022-08-27T10:54:42.056Z,25.93
2022-08-27T10:55:42.268Z,25.92
2022-08-27T10:56:42.474Z,25.86
2022-08-27T10:57:56.497Z,25.81
2022-08-27T10:58:43.885Z,25.81
2022-08-27T10:59:43.125Z,25.77
2022-08-27T11:00:43.351Z,25.63
2022-08-27T11:01:43.455Z,25.43
2022-08-27T11:02:43.671Z,25.26
2022-08-27T11:03:43.892Z,25.15
2022-08-27T11:04:44.119Z,25.15
2022-08-27T11:05:44.319Z,25.09
2022-08-27T11:06:44.539Z,25.03
2022-08-27T11:07:44.760Z,24.93
2022-08-27T11:08:45.001Z,24.84
2022-08-27T11:09:45.205Z,24.79
2022-08-27T11:10:45.426Z,24.66
2022-08-27T11:12:46.820Z,24.62
2022-08-27T11:13:46.046Z,24.59
2022-08-27T11:14:46.266Z,24.59
2022-08-27T11:15:46.500Z,24.56
2022-08-27T11:16:46.791Z,24.53
2022-08-27T11:17:46.886Z,24.47
2022-08-27T11:18:47.125Z,24.46
2022-08-27T11:19:47.347Z,24.48
2022-08-27T11:20:47.563Z,24.47
2022-08-27T11:21:47.786Z,24.41
2022-08-27T11:22:48.004Z,24.41
2022-08-27T11:23:48.248Z,24.41
2022-08-27T11:24:48.457Z,24.40
2022-08-27T11:25:48.667Z,24.37
2022-08-27T11:26:48.913Z,24.34
2022-08-27T11:27:49.137Z,24.28
2022-08-27T11:28:49.379Z,24.28
2022-08-27T11:29:49.624Z,24.26
2022-08-27T11:30:49.799Z,24.28
2022-08-27T11:31:50.101Z,24.26
2022-08-27T11:32:50.292Z,24.22
2022-08-27T11:33:50.527Z,24.24
2022-08-27T11:34:50.753Z,24.22
2022-08-27T11:35:50.981Z,24.19
2022-08-27T11:36:54.354Z,24.16
2022-08-27T11:37:51.485Z,24.09
2022-08-27T11:38:51.726Z,24.09
2022-08-27T11:39:52.136Z,24.09
2022-08-27T11:40:52.132Z,24.13
2022-08-27T11:41:52.382Z,24.10
2022-08-27T11:42:52.612Z,24.07
2022-08-27T11:43:52.849Z,24.04
2022-08-27T11:44:53.080Z,24.06
2022-08-27T11:45:53.306Z,24.09
2022-08-27T11:46:53.651Z,24.10
2022-08-27T11:47:53.790Z,24.09
2022-08-27T11:48:54.995Z,24.07
2022-08-27T11:49:54.222Z,24.09
2022-08-27T11:50:54.458Z,24.11
2022-08-27T11:51:54.675Z,24.11
2022-08-27T11:52:54.905Z,24.14
2022-08-27T11:53:55.147Z,24.19
2022-08-27T11:54:55.395Z,24.22
2022-08-27T11:55:55.625Z,24.25
2022-08-27T11:56:55.858Z,24.26
2022-08-27T11:57:56.131Z,24.22
2022-08-27T11:58:56.351Z,24.21
2022-08-27T11:59:56.582Z,24.16
2022-08-27T12:00:58.961Z,24.09
2022-08-27T12:01:57.978Z,24.06
2022-08-27T12:02:57.266Z,23.89
2022-08-27T12:03:57.437Z,23.84
2022-08-27T12:04:57.567Z,23.81
2022-08-27T12:05:57.810Z,23.77
2022-08-27T12:06:58.061Z,23.79
2022-08-27T12:07:58.302Z,23.76
2022-08-27T12:08:58.546Z,23.76
2022-08-27T12:09:58.784Z,23.81
2022-08-27T12:10:59.581Z,23.79
2022-08-27T12:11:59.256Z,23.82
2022-08-27T12:13:00.804Z,23.89
2022-08-27T12:13:59.785Z,23.94
2022-08-27T12:14:59.912Z,24.00
2022-08-27T12:16:00.203Z,24.01
2022-08-27T12:17:00.336Z,24.03
2022-08-27T12:18:00.559Z,24.04
2022-08-27T12:19:00.832Z,24.04
2022-08-27T12:20:00.977Z,24.06
2022-08-27T12:21:01.196Z,24.09
2022-08-27T12:22:01.415Z,24.13
2022-08-27T12:23:01.641Z,24.18
2022-08-27T12:24:01.878Z,24.22
2022-08-27T12:25:02.111Z,24.29
2022-08-27T12:26:02.346Z,24.43
2022-08-27T12:27:02.605Z,24.62
2022-08-27T12:28:02.834Z,24.77
2022-08-27T12:29:03.070Z,24.94
2022-08-27T12:30:03.306Z,25.12
2022-08-27T12:31:03.519Z,25.31
2022-08-27T12:32:03.741Z,25.37
2022-08-27T12:33:03.963Z,25.49
2022-08-27T12:34:04.205Z,25.58
2022-08-27T12:35:04.436Z,25.63
2022-08-27T12:36:04.602Z,25.52
2022-08-27T12:37:05.215Z,25.46
2022-08-27T12:38:05.116Z,25.43
2022-08-27T12:39:05.272Z,25.40
2022-08-27T12:40:05.559Z,25.37
2022-08-27T12:41:05.722Z,25.43
2022-08-27T12:42:05.945Z,25.43
2022-08-27T12:43:06.165Z,25.48
2022-08-27T12:44:06.421Z,25.61
2022-08-27T12:45:06.529Z,25.61
2022-08-27T12:46:06.731Z,25.70
2022-08-27T12:47:07.013Z,25.71
2022-08-27T12:48:07.149Z,25.76
2022-08-27T12:49:35.820Z,25.74
2022-08-27T12:50:08.499Z,25.77
2022-08-27T12:51:07.701Z,25.78
2022-08-27T12:52:07.918Z,25.77
2022-08-27T12:53:08.147Z,25.71
2022-08-27T12:54:08.358Z,25.67
2022-08-27T12:55:08.557Z,25.70
2022-08-27T12:56:08.760Z,25.70